createdAt,value
2023-03-17T00:01:20.823Z,71.44
2023-03-17T00:03:49.949Z,71.73
2023-03-17T00:06:20.541Z,71.68
2023-03-17T00:08:49.674Z,71.77
2023-03-17T00:11:18.831Z,71.95
2023-03-17T00:13:47.134Z,71.99
2023-03-17T00:16:20.082Z,72.22
2023-03-17T00:18:48.458Z,71.94
2023-03-17T00:21:19.709Z,72.09
2023-03-17T00:23:51.743Z,71.97
2023-03-17T00:26:20.591Z,72.20
2023-03-17T00:28:50.677Z,72.19
2023-03-17T00:31:21.359Z,72.01
2023-03-17T00:33:52.806Z,72.05
2023-03-17T00:36:24.160Z,72.43
2023-03-17T00:38:53.554Z,72.38
2023-03-17T00:41:21.559Z,72.18
2023-03-17T00:43:49.451Z,72.45
2023-03-17T00:46:23.843Z,72.40
2023-03-17T00:48:51.987Z,72.32
2023-03-17T00:51:19.808Z,72.34
2023-03-17T00:53:49.287Z,72.46
2023-03-17T00:56:20.683Z,72.47
2023-03-17T00:58:49.744Z,72.39
2023-03-17T01:01:18.456Z,72.78
2023-03-17T01:03:48.224Z,72.62
2023-03-17T01:06:17.664Z,72.40
2023-03-17T01:08:45.758Z,72.49
2023-03-17T01:11:20.736Z,72.58
2023-03-17T01:13:48.828Z,72.57
2023-03-17T01:16:17.085Z,72.34
2023-03-17T01:18:45.600Z,72.34
2023-03-17T01:21:13.963Z,72.23
2023-03-17T01:23:42.126Z,72.26
2023-03-17T01:26:10.089Z,72.03
2023-03-17T01:28:39.385Z,72.21
2023-03-17T01:31:07.133Z,71.97
2023-03-17T01:33:35.166Z,71.93
2023-03-17T01:36:03.243Z,71.93
2023-03-17T01:38:31.261Z,71.93
2023-03-17T01:40:59.582Z,72.00
2023-03-17T01:43:29.348Z,71.96
2023-03-17T01:46:22.066Z,71.97
2023-03-17T01:49:00.809Z,72.09
2023-03-17T01:51:33.231Z,71.72
2023-03-17T01:54:05.003Z,71.86
2023-03-17T01:56:33.319Z,71.70
2023-03-17T01:59:03.844Z,71.80
2023-03-17T02:01:38.718Z,71.69
2023-03-17T02:04:07.370Z,71.71
2023-03-17T02:06:37.023Z,71.72
2023-03-17T02:09:08.235Z,71.78
2023-03-17T02:11:36.819Z,71.62
2023-03-17T02:14:04.598Z,71.95
2023-03-17T02:16:33.820Z,71.92
2023-03-17T02:19:01.615Z,71.87
2023-03-17T02:21:43.487Z,71.78
2023-03-17T02:24:20.427Z,71.99
2023-03-17T02:26:49.489Z,71.81
2023-03-17T02:29:17.755Z,72.00
2023-03-17T02:31:46.417Z,71.97
2023-03-17T02:34:14.393Z,71.76
2023-03-17T02:36:43.680Z,71.80
2023-03-17T02:39:11.545Z,71.91
2023-03-17T02:41:39.417Z,71.84
2023-03-17T02:44:07.269Z,71.96
2023-03-17T02:46:35.129Z,71.89
2023-03-17T02:49:03.364Z,71.86
2023-03-17T02:51:31.186Z,71.85
2023-03-17T02:54:00.413Z,72.00
2023-03-17T02:56:28.206Z,72.01
2023-03-17T02:58:56.038Z,72.10
2023-03-17T03:01:23.895Z,72.02
2023-03-17T03:03:51.692Z,72.38
2023-03-17T03:06:19.673Z,72.39
2023-03-17T03:08:47.795Z,72.26
2023-03-17T03:11:16.938Z,72.55
2023-03-17T03:13:44.901Z,72.31
2023-03-17T03:16:12.735Z,72.13
2023-03-17T03:18:40.625Z,72.07
2023-03-17T03:21:09.614Z,71.88
2023-03-17T03:23:37.438Z,72.13
2023-03-17T03:26:05.460Z,72.17
2023-03-17T03:28:34.711Z,71.90
2023-03-17T03:31:02.943Z,71.86
2023-03-17T03:33:31.230Z,71.96
2023-03-17T03:35:59.413Z,72.14
2023-03-17T03:38:27.444Z,72.17
2023-03-17T03:40:55.204Z,72.19
2023-03-17T03:43:24.173Z,72.02
2023-03-17T03:45:54.567Z,72.26
2023-03-17T03:48:23.015Z,72.23
2023-03-17T03:50:50.890Z,72.25
2023-03-17T03:53:18.662Z,72.29
2023-03-17T03:55:46.704Z,72.13
2023-03-17T03:58:14.484Z,72.06
2023-03-17T04:00:42.496Z,71.73
2023-03-17T04:03:11.855Z,71.78
2023-03-17T04:05:39.612Z,71.63
2023-03-17T04:08:07.559Z,71.71
2023-03-17T04:10:35.875Z,71.71
2023-03-17T04:13:03.666Z,71.74
2023-03-17T04:15:31.475Z,71.72
2023-03-17T04:17:59.269Z,71.17
2023-03-17T04:20:28.925Z,71.21
2023-03-17T04:22:56.948Z,70.79
2023-03-17T04:25:24.693Z,70.81
2023-03-17T04:27:52.432Z,70.55
2023-03-17T04:30:20.271Z,70.59
2023-03-17T04:32:48.065Z,70.42
2023-03-17T04:35:17.629Z,70.47
2023-03-17T04:37:47.935Z,70.22
2023-03-17T04:40:17.207Z,69.86
2023-03-17T04:42:45.017Z,69.90
2023-03-17T04:45:15.501Z,70.14
2023-03-17T04:47:43.353Z,69.92
2023-03-17T04:50:12.253Z,69.41
2023-03-17T04:52:40.361Z,68.87
2023-03-17T04:55:11.903Z,68.83
2023-03-17T04:57:39.911Z,68.84
2023-03-17T05:00:09.866Z,68.86
2023-03-17T05:02:38.825Z,69.13
2023-03-17T05:05:06.848Z,68.60
2023-03-17T05:07:34.651Z,68.54
2023-03-17T05:10:02.509Z,68.51
2023-03-17T05:12:31.616Z,68.82
2023-03-17T05:14:59.526Z,68.77
2023-03-17T05:17:27.333Z,68.24
2023-03-17T05:19:55.100Z,68.08
2023-03-17T05:22:22.860Z,68.28
2023-03-17T05:24:50.614Z,67.92
2023-03-17T05:27:18.371Z,68.20
2023-03-17T05:29:47.532Z,68.22
2023-03-17T05:32:15.331Z,68.40
2023-03-17T05:34:43.126Z,68.17
2023-03-17T05:37:10.893Z,68.40
2023-03-17T05:39:38.664Z,68.74
2023-03-17T05:42:07.178Z,68.58
2023-03-17T05:44:35.499Z,68.90
2023-03-17T05:47:04.853Z,68.67
2023-03-17T05:49:32.622Z,69.01
2023-03-17T05:52:00.422Z,69.02
2023-03-17T05:54:28.184Z,68.91
2023-03-17T05:56:56.010Z,69.11
2023-03-17T05:59:23.812Z,69.11
2023-03-17T06:01:52.005Z,69.23
2023-03-17T06:04:21.828Z,69.04
2023-03-17T06:06:49.616Z,69.28
2023-03-17T06:09:18.120Z,69.30
2023-03-17T06:11:45.941Z,69.56
2023-03-17T06:14:14.609Z,69.60
2023-03-17T06:16:42.391Z,69.49
2023-03-17T06:19:10.327Z,69.74
2023-03-17T06:21:39.439Z,69.46
2023-03-17T06:24:08.459Z,70.00
2023-03-17T06:26:37.142Z,69.57
2023-03-17T06:29:05.060Z,69.71
2023-03-17T06:31:32.885Z,69.79
2023-03-17T06:34:00.687Z,70.23
2023-03-17T06:36:28.493Z,69.88
2023-03-17T06:38:57.824Z,69.71
2023-03-17T06:41:25.637Z,69.62
2023-03-17T06:43:53.493Z,69.17
2023-03-17T06:46:21.608Z,69.15
2023-03-17T06:48:49.427Z,68.79
2023-03-17T06:51:17.188Z,68.44
2023-03-17T06:53:44.976Z,67.06
2023-03-17T06:56:27.382Z,66.83
2023-03-17T06:58:57.564Z,66.41
2023-03-17T07:01:25.538Z,65.82
2023-03-17T07:03:53.418Z,64.04
2023-03-17T07:06:23.244Z,65.00
2023-03-17T07:08:52.283Z,63.79
2023-03-17T07:11:23.549Z,64.28
2023-03-17T07:13:52.010Z,65.41
2023-03-17T07:16:21.045Z,64.63
2023-03-17T07:18:49.173Z,65.47
2023-03-17T07:21:17.359Z,65.65
2023-03-17T07:23:45.221Z,65.30
2023-03-17T07:26:13.265Z,65.67
2023-03-17T07:28:42.425Z,65.80
2023-03-17T07:31:14.083Z,65.38
2023-03-17T07:33:42.581Z,65.70
2023-03-17T07:36:10.749Z,65.26
2023-03-17T07:38:38.594Z,65.22
2023-03-17T07:41:09.824Z,64.87
2023-03-17T07:43:39.152Z,64.85
2023-03-17T07:46:08.555Z,64.46
2023-03-17T07:48:40.687Z,64.43
2023-03-17T07:51:08.771Z,63.63
2023-03-17T07:53:36.579Z,63.72
2023-03-17T07:56:04.619Z,63.28
2023-03-17T07:58:32.399Z,63.05
2023-03-17T08:01:00.610Z,63.13
2023-03-17T08:03:30.547Z,62.59
2023-03-17T08:05:59.437Z,62.17
2023-03-17T08:08:28.615Z,61.78
2023-03-17T08:11:02.177Z,61.02
2023-03-17T08:13:30.103Z,60.31
2023-03-17T08:15:57.925Z,60.23
2023-03-17T08:18:25.780Z,59.94
2023-03-17T08:20:54.915Z,58.80
2023-03-17T08:23:23.184Z,59.13
2023-03-17T08:25:51.139Z,58.49
2023-03-17T08:28:19.174Z,56.86
2023-03-17T08:30:50.549Z,56.35
2023-03-17T08:33:18.721Z,56.66
2023-03-17T08:35:46.973Z,56.19
2023-03-17T08:38:16.199Z,56.51
2023-03-17T08:40:43.941Z,56.56
2023-03-17T08:43:11.847Z,55.25
2023-03-17T08:45:40.723Z,54.50
2023-03-17T08:48:09.597Z,53.31
2023-03-17T08:50:37.534Z,52.61
2023-03-17T08:53:05.393Z,52.00
2023-03-17T08:55:34.540Z,52.63
2023-03-17T08:58:02.655Z,51.06
2023-03-17T09:00:30.720Z,50.52
2023-03-17T09:02:59.176Z,50.63
2023-03-17T09:05:27.080Z,51.48
2023-03-17T09:07:54.896Z,51.30
2023-03-17T09:10:23.579Z,50.85
2023-03-17T09:12:53.340Z,51.27
2023-03-17T09:15:21.401Z,51.21
2023-03-17T09:17:49.433Z,50.88
2023-03-17T09:20:17.854Z,50.47
2023-03-17T09:22:45.655Z,51.31
2023-03-17T09:25:13.453Z,51.20
2023-03-17T09:27:41.252Z,51.98
2023-03-17T09:30:13.422Z,51.41
2023-03-17T09:32:41.312Z,52.01
2023-03-17T09:35:09.950Z,52.03
2023-03-17T09:37:38.088Z,52.51
2023-03-17T09:40:09.160Z,52.39
2023-03-17T09:42:48.621Z,52.50
2023-03-17T09:45:32.886Z,53.58
2023-03-17T09:48:14.095Z,52.36
2023-03-17T09:50:49.484Z,52.28
2023-03-17T09:53:22.234Z,51.40
2023-03-17T09:55:55.940Z,51.60
2023-03-17T09:58:30.346Z,50.48
2023-03-17T10:01:00.360Z,51.16
2023-03-17T10:03:28.407Z,50.65
2023-03-17T10:06:09.991Z,50.73
2023-03-17T10:08:45.125Z,50.40
2023-03-17T10:11:18.761Z,50.66
2023-03-17T10:13:55.873Z,50.67
2023-03-17T10:16:32.337Z,50.90
2023-03-17T10:19:04.529Z,50.83
2023-03-17T10:21:36.149Z,50.93
2023-03-17T10:24:05.296Z,51.81
2023-03-17T10:26:39.766Z,52.00
2023-03-17T10:29:13.406Z,52.29
2023-03-17T10:31:42.620Z,52.65
2023-03-17T10:34:15.086Z,52.15
2023-03-17T10:36:45.646Z,51.29
2023-03-17T10:39:15.320Z,51.43
2023-03-17T10:41:55.541Z,51.52
2023-03-17T10:44:34.066Z,50.49
2023-03-17T10:47:03.642Z,51.44
2023-03-17T10:49:37.208Z,51.42
2023-03-17T10:52:08.808Z,50.67
2023-03-17T10:54:38.464Z,51.24
2023-03-17T10:57:10.600Z,51.15
2023-03-17T10:59:44.787Z,51.03
2023-03-17T11:02:24.029Z,50.82
2023-03-17T11:04:55.963Z,50.16
2023-03-17T11:07:31.284Z,49.30
2023-03-17T11:10:02.621Z,48.89
2023-03-17T11:12:36.492Z,49.74
2023-03-17T11:15:06.957Z,49.54
2023-03-17T11:17:46.373Z,49.36
2023-03-17T11:20:38.621Z,49.66
2023-03-17T11:23:13.281Z,50.12
2023-03-17T11:25:44.921Z,49.23
2023-03-17T11:28:20.285Z,48.03
2023-03-17T11:30:59.718Z,49.69
2023-03-17T11:33:37.158Z,49.65
2023-03-17T11:36:15.702Z,50.12
2023-03-17T11:38:54.948Z,49.08
2023-03-17T11:41:41.700Z,49.98
2023-03-17T11:44:30.063Z,50.08
2023-03-17T11:47:04.022Z,50.46
2023-03-17T11:49:37.380Z,50.23
2023-03-17T11:52:12.198Z,49.84
2023-03-17T11:54:50.703Z,51.11
2023-03-17T11:57:23.382Z,50.58
2023-03-17T11:59:55.349Z,50.26
2023-03-17T12:02:31.131Z,50.33
2023-03-17T12:05:05.073Z,51.09
2023-03-17T12:07:36.688Z,51.17
2023-03-17T12:10:17.324Z,50.43
2023-03-17T12:12:51.607Z,50.31
2023-03-17T12:15:26.877Z,50.60
2023-03-17T12:18:00.330Z,49.58
2023-03-17T12:20:34.041Z,49.44
2023-03-17T12:23:07.640Z,48.89
2023-03-17T12:25:42.559Z,49.59
2023-03-17T12:28:15.966Z,48.25
2023-03-17T12:30:49.345Z,48.70
2023-03-17T12:33:23.617Z,49.35
2023-03-17T12:35:53.086Z,48.81
2023-03-17T12:38:28.424Z,49.11
2023-03-17T12:41:15.623Z,48.84
2023-03-17T12:43:57.213Z,48.82
2023-03-17T12:46:48.292Z,48.91
2023-03-17T12:49:38.479Z,49.51
2023-03-17T12:52:17.839Z,49.01
2023-03-17T12:54:48.557Z,49.53
2023-03-17T12:57:20.662Z,49.98
2023-03-17T12:59:51.155Z,49.21
2023-03-17T13:02:32.169Z,50.10
2023-03-17T13:05:01.848Z,50.54
2023-03-17T13:07:38.135Z,51.59
2023-03-17T13:10:34.571Z,52.37
2023-03-17T13:13:11.199Z,52.45
2023-03-17T13:16:01.419Z,51.64
2023-03-17T13:18:53.878Z,51.68
2023-03-17T13:21:26.371Z,51.66
2023-03-17T13:24:27.343Z,51.98
2023-03-17T13:27:00.756Z,52.46
2023-03-17T13:29:41.427Z,52.17
2023-03-17T13:32:42.753Z,52.60
2023-03-17T13:35:37.877Z,53.28
2023-03-17T13:38:29.364Z,53.88
2023-03-17T13:41:15.028Z,53.93
2023-03-17T13:43:53.422Z,54.28
2023-03-17T13:46:26.726Z,54.54
2023-03-17T13:48:56.306Z,54.00
2023-03-17T13:51:27.169Z,54.67
2023-03-17T13:53:56.434Z,54.06
2023-03-17T13:56:27.758Z,54.10
2023-03-17T13:59:08.131Z,53.42
2023-03-17T14:01:40.826Z,53.96
2023-03-17T14:04:18.794Z,54.70
2023-03-17T14:06:50.383Z,54.47
2023-03-17T14:09:29.560Z,54.51
2023-03-17T14:12:01.419Z,53.59
2023-03-17T14:14:38.082Z,53.97
2023-03-17T14:17:13.068Z,54.40
2023-03-17T14:19:41.820Z,54.07
2023-03-17T14:22:24.126Z,53.17
2023-03-17T14:24:53.979Z,52.82
2023-03-17T14:27:23.975Z,52.65
2023-03-17T14:29:53.708Z,52.89
2023-03-17T14:32:24.855Z,53.11
2023-03-17T14:34:57.134Z,52.73
2023-03-17T14:37:25.412Z,52.69
2023-03-17T14:39:56.169Z,53.34
2023-03-17T14:42:28.157Z,52.04
2023-03-17T14:45:06.613Z,52.64
2023-03-17T14:47:39.567Z,53.58
2023-03-17T14:50:20.628Z,52.26
2023-03-17T14:52:51.092Z,52.33
2023-03-17T14:55:19.783Z,52.75
2023-03-17T14:57:51.974Z,51.15
2023-03-17T15:00:37.018Z,51.02
2023-03-17T15:03:17.426Z,50.91
2023-03-17T15:05:46.681Z,50.74
2023-03-17T15:08:39.531Z,49.99
2023-03-17T15:11:08.777Z,50.65
2023-03-17T15:13:38.995Z,50.94
2023-03-17T15:16:18.542Z,50.85
2023-03-17T15:18:46.773Z,51.39
2023-03-17T15:21:28.290Z,50.58
2023-03-17T15:23:56.142Z,50.81
2023-03-17T15:26:31.701Z,50.67
2023-03-17T15:29:00.877Z,51.16
2023-03-17T15:31:30.750Z,50.90
2023-03-17T15:33:59.666Z,51.17
2023-03-17T15:36:32.831Z,51.47
2023-03-17T15:39:01.346Z,50.96
2023-03-17T15:41:29.263Z,50.54
2023-03-17T15:43:57.197Z,50.96
2023-03-17T15:46:30.850Z,50.62
2023-03-17T15:49:00.383Z,49.80
2023-03-17T15:51:28.294Z,50.04
2023-03-17T15:53:56.128Z,49.79
2023-03-17T15:56:23.936Z,49.70
2023-03-17T15:58:52.732Z,50.19
2023-03-17T16:01:21.725Z,49.78
2023-03-17T16:03:50.493Z,50.40
2023-03-17T16:06:22.316Z,50.07
2023-03-17T16:08:51.067Z,49.74
2023-03-17T16:11:22.762Z,49.71
2023-03-17T16:13:50.639Z,50.17
2023-03-17T16:16:22.572Z,50.46
2023-03-17T16:18:52.562Z,50.42
2023-03-17T16:21:22.223Z,50.81
2023-03-17T16:23:50.851Z,50.63
2023-03-17T16:26:18.615Z,51.32
2023-03-17T16:28:47.665Z,51.27
2023-03-17T16:31:29.259Z,51.69
2023-03-17T16:33:57.331Z,52.40
2023-03-17T16:36:26.955Z,52.46
2023-03-17T16:38:55.187Z,51.54
2023-03-17T16:41:26.010Z,51.69
2023-03-17T16:43:55.303Z,51.96
2023-03-17T16:46:23.810Z,51.75
2023-03-17T16:48:52.149Z,51.58
2023-03-17T16:51:20.653Z,52.34
2023-03-17T16:53:49.807Z,52.86
2023-03-17T16:56:20.113Z,51.97
2023-03-17T16:58:48.520Z,51.74
2023-03-17T17:01:19.199Z,52.01
2023-03-17T17:03:47.588Z,52.29
2023-03-17T17:06:16.226Z,51.91
2023-03-17T17:08:45.318Z,52.91
2023-03-17T17:11:15.559Z,52.83
2023-03-17T17:13:45.096Z,52.48
2023-03-17T17:16:21.553Z,52.83
2023-03-17T17:18:49.456Z,52.68
2023-03-17T17:21:17.226Z,52.96
2023-03-17T17:23:44.984Z,53.03
2023-03-17T17:26:14.321Z,53.03
2023-03-17T17:28:42.698Z,53.21
2023-03-17T17:31:11.412Z,53.72
2023-03-17T17:33:40.001Z,53.59
2023-03-17T17:36:13.775Z,53.96
2023-03-17T17:38:41.571Z,54.13
2023-03-17T17:41:11.795Z,54.58
2023-03-17T17:43:41.974Z,54.37
2023-03-17T17:46:12.397Z,54.88
2023-03-17T17:48:40.541Z,54.82
2023-03-17T17:51:08.383Z,54.51
2023-03-17T17:53:36.832Z,54.91
2023-03-17T17:56:05.061Z,55.36
2023-03-17T17:58:32.933Z,55.75
2023-03-17T18:01:04.312Z,55.59
2023-03-17T18:03:32.555Z,55.71
2023-03-17T18:06:00.898Z,55.75
2023-03-17T18:08:28.757Z,55.62
2023-03-17T18:10:57.252Z,55.66
2023-03-17T18:13:25.142Z,55.82
2023-03-17T18:15:52.981Z,56.03
2023-03-17T18:18:22.145Z,56.18
2023-03-17T18:20:49.945Z,55.93
2023-03-17T18:23:17.743Z,55.58
2023-03-17T18:25:45.536Z,55.63
2023-03-17T18:28:13.689Z,56.01
2023-03-17T18:30:41.520Z,55.96
2023-03-17T18:33:13.195Z,56.46
2023-03-17T18:35:42.908Z,55.93
2023-03-17T18:38:10.758Z,56.57
2023-03-17T18:40:38.593Z,56.00
2023-03-17T18:43:06.499Z,56.48
2023-03-17T18:45:34.369Z,56.49
2023-03-17T18:48:02.231Z,56.99
2023-03-17T18:50:30.324Z,57.60
2023-03-17T18:52:59.615Z,57.56
2023-03-17T18:55:27.401Z,58.02
2023-03-17T18:57:55.739Z,57.70
2023-03-17T19:00:25.280Z,57.37
2023-03-17T19:02:53.205Z,58.43
2023-03-17T19:05:21.486Z,58.14
2023-03-17T19:07:49.641Z,58.59
2023-03-17T19:10:19.432Z,58.75
2023-03-17T19:12:47.340Z,58.76
2023-03-17T19:15:15.582Z,59.47
2023-03-17T19:17:43.581Z,59.87
2023-03-17T19:20:13.172Z,59.61
2023-03-17T19:22:41.597Z,59.49
2023-03-17T19:25:10.605Z,59.93
2023-03-17T19:27:39.972Z,61.10
2023-03-17T19:30:08.916Z,61.28
2023-03-17T19:32:36.866Z,61.42
2023-03-17T19:35:05.020Z,61.87
2023-03-17T19:37:32.915Z,62.19
2023-03-17T19:40:00.718Z,61.72
2023-03-17T19:42:28.452Z,61.97
2023-03-17T19:44:57.615Z,62.10
2023-03-17T19:47:25.590Z,61.94
2023-03-17T19:49:53.784Z,62.19
2023-03-17T19:52:21.782Z,62.22
2023-03-17T19:54:49.562Z,62.26
2023-03-17T19:57:19.076Z,62.56
2023-03-17T19:59:47.169Z,62.37
2023-03-17T20:02:17.828Z,62.64
2023-03-17T20:04:45.783Z,62.78
2023-03-17T20:07:13.655Z,62.71
2023-03-17T20:09:42.177Z,63.08
2023-03-17T20:12:09.984Z,63.10
2023-03-17T20:14:37.774Z,62.95
2023-03-17T20:17:05.697Z,63.36
2023-03-17T20:19:39.062Z,63.62
2023-03-17T20:22:07.269Z,63.12
2023-03-17T20:24:35.444Z,63.22
2023-03-17T20:27:03.659Z,63.18
2023-03-17T20:29:31.603Z,62.96
2023-03-17T20:31:59.398Z,62.19
2023-03-17T20:34:27.214Z,62.44
2023-03-17T20:36:56.962Z,62.37
2023-03-17T20:39:24.761Z,62.46
2023-03-17T20:41:52.759Z,62.20
2023-03-17T20:44:21.611Z,62.77
2023-03-17T20:46:49.557Z,63.10
2023-03-17T20:49:17.549Z,63.12
2023-03-17T20:51:46.600Z,63.45
2023-03-17T20:54:15.819Z,63.67
2023-03-17T20:56:44.170Z,64.01
2023-03-17T20:59:13.384Z,63.85
2023-03-17T21:01:42.620Z,64.15
2023-03-17T21:04:15.582Z,64.24
2023-03-17T21:06:43.538Z,64.74
2023-03-17T21:09:12.006Z,64.86
2023-03-17T21:11:41.681Z,64.49
2023-03-17T21:14:09.548Z,64.61
2023-03-17T21:16:39.183Z,65.04
2023-03-17T21:19:09.671Z,65.01
2023-03-17T21:21:37.677Z,65.50
2023-03-17T21:24:08.329Z,65.68
2023-03-17T21:26:36.245Z,66.11
2023-03-17T21:29:05.415Z,66.05
2023-03-17T21:31:33.278Z,66.33
2023-03-17T21:34:01.448Z,66.48
2023-03-17T21:36:30.507Z,66.41
2023-03-17T21:38:58.299Z,66.39
2023-03-17T21:41:32.132Z,66.32
2023-03-17T21:44:00.284Z,66.74
2023-03-17T21:46:31.900Z,66.52
2023-03-17T21:49:00.325Z,66.78
2023-03-17T21:51:28.485Z,66.75
2023-03-17T21:53:56.334Z,67.14
2023-03-17T21:56:24.295Z,67.13
2023-03-17T21:58:52.343Z,67.47
2023-03-17T22:01:21.702Z,67.59
2023-03-17T22:03:52.105Z,67.49
2023-03-17T22:06:21.273Z,67.76
2023-03-17T22:08:50.581Z,67.73
2023-03-17T22:11:20.573Z,67.90
2023-03-17T22:13:48.752Z,67.94
2023-03-17T22:16:18.318Z,68.19
2023-03-17T22:18:46.962Z,68.54
2023-03-17T22:21:16.159Z,68.47
2023-03-17T22:23:44.375Z,68.72
2023-03-17T22:26:14.215Z,68.87
2023-03-17T22:28:43.090Z,69.16
2023-03-17T22:31:12.586Z,69.56
2023-03-17T22:33:40.361Z,69.89
2023-03-17T22:36:08.338Z,70.04
2023-03-17T22:38:37.546Z,69.80
2023-03-17T22:41:07.841Z,69.80
2023-03-17T22:43:35.841Z,70.04
2023-03-17T22:46:03.908Z,69.96
2023-03-17T22:48:32.699Z,70.02
2023-03-17T22:51:02.860Z,70.04
2023-03-17T22:53:31.533Z,70.10
2023-03-17T22:56:01.367Z,70.39
2023-03-17T22:58:29.995Z,70.53
2023-03-17T23:00:58.022Z,70.61
2023-03-17T23:03:27.263Z,70.76
2023-03-17T23:05:58.309Z,70.67
2023-03-17T23:08:26.801Z,70.36
2023-03-17T23:10:56.036Z,71.09
2023-03-17T23:13:25.155Z,71.51
2023-03-17T23:15:52.937Z,71.44
2023-03-17T23:18:20.774Z,71.75
2023-03-17T23:20:48.548Z,71.65
2023-03-17T23:23:16.464Z,71.98
2023-03-17T23:25:44.629Z,71.82
2023-03-17T23:28:12.837Z,72.27
2023-03-17T23:30:42.267Z,72.39
2023-03-17T23:33:10.474Z,72.68
2023-03-17T23:35:38.749Z,72.81
2023-03-17T23:38:06.680Z,72.78
2023-03-17T23:40:34.911Z,72.87
2023-03-17T23:43:05.428Z,73.04
2023-03-17T23:45:34.339Z,72.94
2023-03-17T23:48:03.548Z,73.16
2023-03-17T23:50:31.902Z,72.89
2023-03-17T23:53:00.051Z,72.96
2023-03-17T23:55:27.847Z,72.89
2023-03-17T23:57:56.031Z,73.17
